sensor_id;sensor_type;location;lat;lon;timestamp;P1;durP1;ratioP1;P2;durP2;ratioP2
10295;SDS011;5193;51.032;6.356;2024-01-07T00:02:06;33.70;;;19.03;;
10295;SDS011;5193;51.032;6.356;2024-01-07T00:04:34;44.93;;;22.10;;
10295;SDS011;5193;51.032;6.356;2024-01-07T00:07:00;40.73;;;22.10;;
10295;SDS011;5193;51.032;6.356;2024-01-07T00:09:25;41.67;;;21.37;;
10295;SDS011;5193;51.032;6.356;2024-01-07T00:11:51;34.77;;;18.63;;
10295;SDS011;5193;51.032;6.356;2024-01-07T00:14:17;33.53;;;17.17;;
10295;SDS011;5193;51.032;6.356;2024-01-07T00:16:44;44.87;;;20.33;;
10295;SDS011;5193;51.032;6.356;2024-01-07T00:19:10;51.50;;;25.37;;
10295;SDS011;5193;51.032;6.356;2024-01-07T00:21:36;47.47;;;22.80;;
10295;SDS011;5193;51.032;6.356;2024-01-07T00:24:02;48.23;;;25.10;;
10295;SDS011;5193;51.032;6.356;2024-01-07T00:26:27;53.03;;;27.47;;
10295;SDS011;5193;51.032;6.356;2024-01-07T00:28:53;36.07;;;19.00;;
10295;SDS011;5193;51.032;6.356;2024-01-07T00:31:19;61.33;;;26.60;;
10295;SDS011;5193;51.032;6.356;2024-01-07T00:33:44;47.00;;;24.87;;
10295;SDS011;5193;51.032;6.356;2024-01-07T00:36:10;44.83;;;21.33;;
10295;SDS011;5193;51.032;6.356;2024-01-07T00:38:36;40.97;;;19.43;;
10295;SDS011;5193;51.032;6.356;2024-01-07T00:41:01;50.03;;;23.93;;
10295;SDS011;5193;51.032;6.356;2024-01-07T00:43:27;49.60;;;25.53;;
10295;SDS011;5193;51.032;6.356;2024-01-07T00:45:53;43.93;;;20.87;;
10295;SDS011;5193;51.032;6.356;2024-01-07T00:48:22;42.53;;;20.70;;
10295;SDS011;5193;51.032;6.356;2024-01-07T00:50:47;52.20;;;27.13;;
10295;SDS011;5193;51.032;6.356;2024-01-07T00:53:13;48.93;;;23.13;;
10295;SDS011;5193;51.032;6.356;2024-01-07T00:55:38;55.57;;;25.27;;
10295;SDS011;5193;51.032;6.356;2024-01-07T00:58:04;56.13;;;26.87;;
10295;SDS011;5193;51.032;6.356;2024-01-07T01:00:30;52.67;;;26.37;;
10295;SDS011;5193;51.032;6.356;2024-01-07T01:02:56;53.90;;;25.87;;
10295;SDS011;5193;51.032;6.356;2024-01-07T01:05:22;53.90;;;24.87;;
10295;SDS011;5193;51.032;6.356;2024-01-07T01:07:47;54.20;;;27.90;;
10295;SDS011;5193;51.032;6.356;2024-01-07T01:10:13;42.30;;;21.83;;
10295;SDS011;5193;51.032;6.356;2024-01-07T01:12:41;50.57;;;25.27;;
10295;SDS011;5193;51.032;6.356;2024-01-07T01:15:07;43.00;;;18.73;;
10295;SDS011;5193;51.032;6.356;2024-01-07T01:17:33;45.60;;;20.80;;
10295;SDS011;5193;51.032;6.356;2024-01-07T01:19:59;43.20;;;22.10;;
10295;SDS011;5193;51.032;6.356;2024-01-07T01:22:24;47.03;;;23.30;;
10295;SDS011;5193;51.032;6.356;2024-01-07T01:24:51;42.20;;;21.47;;
10295;SDS011;5193;51.032;6.356;2024-01-07T01:27:18;40.97;;;20.80;;
10295;SDS011;5193;51.032;6.356;2024-01-07T01:29:44;42.80;;;22.80;;
10295;SDS011;5193;51.032;6.356;2024-01-07T01:32:10;37.27;;;20.00;;
10295;SDS011;5193;51.032;6.356;2024-01-07T01:34:36;44.63;;;21.37;;
10295;SDS011;5193;51.032;6.356;2024-01-07T01:37:01;44.20;;;23.77;;
10295;SDS011;5193;51.032;6.356;2024-01-07T01:39:28;42.90;;;23.57;;
10295;SDS011;5193;51.032;6.356;2024-01-07T01:41:54;35.57;;;17.43;;
10295;SDS011;5193;51.032;6.356;2024-01-07T01:44:21;40.63;;;21.93;;
10295;SDS011;5193;51.032;6.356;2024-01-07T01:46:47;39.40;;;19.27;;
10295;SDS011;5193;51.032;6.356;2024-01-07T01:49:14;42.97;;;20.83;;
10295;SDS011;5193;51.032;6.356;2024-01-07T01:51:43;36.57;;;18.97;;
10295;SDS011;5193;51.032;6.356;2024-01-07T01:54:09;37.83;;;18.80;;
10295;SDS011;5193;51.032;6.356;2024-01-07T01:56:35;37.33;;;18.70;;
10295;SDS011;5193;51.032;6.356;2024-01-07T01:59:01;37.83;;;18.70;;
10295;SDS011;5193;51.032;6.356;2024-01-07T02:01:27;35.70;;;17.40;;
10295;SDS011;5193;51.032;6.356;2024-01-07T02:03:53;41.33;;;18.43;;
10295;SDS011;5193;51.032;6.356;2024-01-07T02:06:19;39.20;;;19.77;;
10295;SDS011;5193;51.032;6.356;2024-01-07T02:08:47;25.13;;;14.10;;
10295;SDS011;5193;51.032;6.356;2024-01-07T02:13:41;38.03;;;18.27;;
10295;SDS011;5193;51.032;6.356;2024-01-07T02:16:07;31.30;;;15.33;;
10295;SDS011;5193;51.032;6.356;2024-01-07T02:18:33;21.43;;;9.23;;
10295;SDS011;5193;51.032;6.356;2024-01-07T02:20:58;25.47;;;12.83;;
10295;SDS011;5193;51.032;6.356;2024-01-07T02:23:24;32.70;;;15.27;;
10295;SDS011;5193;51.032;6.356;2024-01-07T02:25:50;34.30;;;17.60;;
10295;SDS011;5193;51.032;6.356;2024-01-07T02:28:15;31.57;;;15.87;;
10295;SDS011;5193;51.032;6.356;2024-01-07T02:30:41;29.93;;;14.23;;
10295;SDS011;5193;51.032;6.356;2024-01-07T02:33:06;25.10;;;11.53;;
10295;SDS011;5193;51.032;6.356;2024-01-07T02:35:32;24.47;;;14.10;;
10295;SDS011;5193;51.032;6.356;2024-01-07T02:37:57;30.33;;;15.07;;
10295;SDS011;5193;51.032;6.356;2024-01-07T02:40:23;29.47;;;16.03;;
10295;SDS011;5193;51.032;6.356;2024-01-07T02:42:49;31.87;;;16.07;;
10295;SDS011;5193;51.032;6.356;2024-01-07T02:45:14;31.63;;;14.50;;
10295;SDS011;5193;51.032;6.356;2024-01-07T02:47:40;32.97;;;16.23;;
10295;SDS011;5193;51.032;6.356;2024-01-07T02:50:06;37.43;;;18.43;;
10295;SDS011;5193;51.032;6.356;2024-01-07T02:52:31;29.27;;;15.50;;
10295;SDS011;5193;51.032;6.356;2024-01-07T02:54:57;30.47;;;16.33;;
10295;SDS011;5193;51.032;6.356;2024-01-07T02:57:23;31.70;;;16.47;;
10295;SDS011;5193;51.032;6.356;2024-01-07T02:59:49;34.90;;;16.63;;
10295;SDS011;5193;51.032;6.356;2024-01-07T03:02:14;31.30;;;15.77;;
10295;SDS011;5193;51.032;6.356;2024-01-07T03:04:40;36.70;;;17.63;;
10295;SDS011;5193;51.032;6.356;2024-01-07T03:07:05;34.17;;;18.07;;
10295;SDS011;5193;51.032;6.356;2024-01-07T03:09:31;32.73;;;17.53;;
10295;SDS011;5193;51.032;6.356;2024-01-07T03:11:56;31.33;;;16.90;;
10295;SDS011;5193;51.032;6.356;2024-01-07T03:14:24;40.50;;;21.43;;
10295;SDS011;5193;51.032;6.356;2024-01-07T03:16:49;33.63;;;20.03;;
10295;SDS011;5193;51.032;6.356;2024-01-07T03:19:15;32.73;;;18.97;;
10295;SDS011;5193;51.032;6.356;2024-01-07T03:21:41;34.90;;;21.07;;
10295;SDS011;5193;51.032;6.356;2024-01-07T03:24:06;33.57;;;17.37;;
10295;SDS011;5193;51.032;6.356;2024-01-07T03:26:34;41.00;;;22.60;;
10295;SDS011;5193;51.032;6.356;2024-01-07T03:28:59;33.40;;;19.30;;
10295;SDS011;5193;51.032;6.356;2024-01-07T03:31:27;33.20;;;18.00;;
10295;SDS011;5193;51.032;6.356;2024-01-07T03:33:52;30.23;;;16.23;;
10295;SDS011;5193;51.032;6.356;2024-01-07T03:36:18;28.87;;;15.73;;
10295;SDS011;5193;51.032;6.356;2024-01-07T03:38:44;28.03;;;14.93;;
10295;SDS011;5193;51.032;6.356;2024-01-07T03:41:15;35.40;;;18.27;;
10295;SDS011;5193;51.032;6.356;2024-01-07T03:43:42;24.07;;;14.90;;
10295;SDS011;5193;51.032;6.356;2024-01-07T03:46:08;25.73;;;15.53;;
10295;SDS011;5193;51.032;6.356;2024-01-07T03:48:34;25.93;;;15.73;;
10295;SDS011;5193;51.032;6.356;2024-01-07T03:50:59;27.60;;;17.03;;
10295;SDS011;5193;51.032;6.356;2024-01-07T03:53:25;28.87;;;18.77;;
10295;SDS011;5193;51.032;6.356;2024-01-07T03:55:50;29.70;;;16.87;;
10295;SDS011;5193;51.032;6.356;2024-01-07T03:58:16;31.73;;;17.43;;
10295;SDS011;5193;51.032;6.356;2024-01-07T04:00:42;27.77;;;16.50;;
10295;SDS011;5193;51.032;6.356;2024-01-07T04:03:07;27.97;;;17.57;;
10295;SDS011;5193;51.032;6.356;2024-01-07T04:05:33;33.50;;;20.13;;
10295;SDS011;5193;51.032;6.356;2024-01-07T04:08:01;24.13;;;12.83;;
10295;SDS011;5193;51.032;6.356;2024-01-07T04:10:27;32.50;;;19.27;;
10295;SDS011;5193;51.032;6.356;2024-01-07T04:12:53;33.13;;;22.20;;
10295;SDS011;5193;51.032;6.356;2024-01-07T04:15:18;35.37;;;18.07;;
10295;SDS011;5193;51.032;6.356;2024-01-07T04:17:45;31.43;;;19.67;;
10295;SDS011;5193;51.032;6.356;2024-01-07T04:20:14;31.67;;;19.57;;
10295;SDS011;5193;51.032;6.356;2024-01-07T04:22:39;38.47;;;20.63;;
10295;SDS011;5193;51.032;6.356;2024-01-07T04:25:05;33.27;;;20.33;;
10295;SDS011;5193;51.032;6.356;2024-01-07T04:27:35;35.10;;;21.47;;
10295;SDS011;5193;51.032;6.356;2024-01-07T04:30:01;28.60;;;18.10;;
10295;SDS011;5193;51.032;6.356;2024-01-07T04:32:27;27.93;;;16.80;;
10295;SDS011;5193;51.032;6.356;2024-01-07T04:34:53;34.07;;;20.17;;
10295;SDS011;5193;51.032;6.356;2024-01-07T04:37:18;30.90;;;19.13;;
10295;SDS011;5193;51.032;6.356;2024-01-07T04:39:44;32.47;;;19.07;;
10295;SDS011;5193;51.032;6.356;2024-01-07T04:42:10;33.50;;;20.90;;
10295;SDS011;5193;51.032;6.356;2024-01-07T04:44:35;36.27;;;21.30;;
10295;SDS011;5193;51.032;6.356;2024-01-07T04:47:01;37.53;;;20.93;;
10295;SDS011;5193;51.032;6.356;2024-01-07T04:49:26;27.53;;;16.47;;
10295;SDS011;5193;51.032;6.356;2024-01-07T04:51:52;38.73;;;21.47;;
10295;SDS011;5193;51.032;6.356;2024-01-07T04:54:17;41.67;;;20.67;;
10295;SDS011;5193;51.032;6.356;2024-01-07T04:56:43;36.93;;;20.73;;
10295;SDS011;5193;51.032;6.356;2024-01-07T04:59:09;43.43;;;26.30;;
10295;SDS011;5193;51.032;6.356;2024-01-07T05:01:35;34.07;;;19.40;;
10295;SDS011;5193;51.032;6.356;2024-01-07T05:04:02;37.97;;;20.70;;
10295;SDS011;5193;51.032;6.356;2024-01-07T05:06:28;35.83;;;21.43;;
10295;SDS011;5193;51.032;6.356;2024-01-07T05:08:56;36.70;;;21.50;;
10295;SDS011;5193;51.032;6.356;2024-01-07T05:11:22;37.53;;;23.63;;
10295;SDS011;5193;51.032;6.356;2024-01-07T05:13:47;40.90;;;23.27;;
10295;SDS011;5193;51.032;6.356;2024-01-07T05:16:19;38.67;;;22.00;;
10295;SDS011;5193;51.032;6.356;2024-01-07T05:18:45;35.07;;;21.57;;
10295;SDS011;5193;51.032;6.356;2024-01-07T05:21:13;28.80;;;17.70;;
10295;SDS011;5193;51.032;6.356;2024-01-07T05:23:50;36.80;;;22.07;;
10295;SDS011;5193;51.032;6.356;2024-01-07T05:26:16;43.20;;;25.03;;
10295;SDS011;5193;51.032;6.356;2024-01-07T05:28:41;39.20;;;21.60;;
10295;SDS011;5193;51.032;6.356;2024-01-07T05:31:17;30.10;;;17.43;;
10295;SDS011;5193;51.032;6.356;2024-01-07T05:33:44;29.57;;;17.43;;
10295;SDS011;5193;51.032;6.356;2024-01-07T05:36:11;31.10;;;20.00;;
10295;SDS011;5193;51.032;6.356;2024-01-07T05:38:37;33.70;;;20.37;;
10295;SDS011;5193;51.032;6.356;2024-01-07T05:41:04;31.30;;;18.57;;
10295;SDS011;5193;51.032;6.356;2024-01-07T05:43:32;31.70;;;18.47;;
10295;SDS011;5193;51.032;6.356;2024-01-07T05:46:00;29.33;;;19.57;;
10295;SDS011;5193;51.032;6.356;2024-01-07T05:48:26;29.37;;;17.43;;
10295;SDS011;5193;51.032;6.356;2024-01-07T05:50:52;27.93;;;19.43;;
10295;SDS011;5193;51.032;6.356;2024-01-07T05:53:19;30.43;;;19.20;;
10295;SDS011;5193;51.032;6.356;2024-01-07T05:55:44;29.47;;;18.60;;
10295;SDS011;5193;51.032;6.356;2024-01-07T05:58:10;27.00;;;17.17;;
10295;SDS011;5193;51.032;6.356;2024-01-07T06:00:36;29.43;;;17.37;;
10295;SDS011;5193;51.032;6.356;2024-01-07T06:03:02;31.73;;;17.60;;
10295;SDS011;5193;51.032;6.356;2024-01-07T06:05:29;26.73;;;18.10;;
10295;SDS011;5193;51.032;6.356;2024-01-07T06:07:57;25.87;;;16.87;;
10295;SDS011;5193;51.032;6.356;2024-01-07T06:10:23;26.30;;;17.17;;
10295;SDS011;5193;51.032;6.356;2024-01-07T06:12:48;23.93;;;15.50;;
10295;SDS011;5193;51.032;6.356;2024-01-07T06:15:14;26.13;;;19.33;;
10295;SDS011;5193;51.032;6.356;2024-01-07T06:17:40;24.87;;;16.17;;
10295;SDS011;5193;51.032;6.356;2024-01-07T06:20:05;20.03;;;14.07;;
10295;SDS011;5193;51.032;6.356;2024-01-07T06:22:33;26.40;;;17.80;;
10295;SDS011;5193;51.032;6.356;2024-01-07T06:24:58;26.47;;;18.70;;
10295;SDS011;5193;51.032;6.356;2024-01-07T06:27:24;29.53;;;19.03;;
10295;SDS011;5193;51.032;6.356;2024-01-07T06:29:49;25.57;;;16.83;;
10295;SDS011;5193;51.032;6.356;2024-01-07T06:32:15;29.40;;;18.73;;
10295;SDS011;5193;51.032;6.356;2024-01-07T06:34:40;25.53;;;18.57;;
10295;SDS011;5193;51.032;6.356;2024-01-07T06:37:06;25.37;;;16.60;;
10295;SDS011;5193;51.032;6.356;2024-01-07T06:39:33;27.17;;;16.73;;
10295;SDS011;5193;51.032;6.356;2024-01-07T06:41:59;25.67;;;16.17;;
10295;SDS011;5193;51.032;6.356;2024-01-07T06:44:25;23.70;;;16.27;;
10295;SDS011;5193;51.032;6.356;2024-01-07T06:46:50;21.77;;;13.97;;
10295;SDS011;5193;51.032;6.356;2024-01-07T06:49:16;32.20;;;16.23;;
10295;SDS011;5193;51.032;6.356;2024-01-07T06:51:42;21.20;;;13.53;;
10295;SDS011;5193;51.032;6.356;2024-01-07T06:54:07;24.70;;;17.23;;
10295;SDS011;5193;51.032;6.356;2024-01-07T06:56:33;25.50;;;16.33;;
10295;SDS011;5193;51.032;6.356;2024-01-07T06:58:58;22.43;;;14.50;;
10295;SDS011;5193;51.032;6.356;2024-01-07T07:01:25;22.07;;;14.60;;
10295;SDS011;5193;51.032;6.356;2024-01-07T07:03:50;22.63;;;13.57;;
10295;SDS011;5193;51.032;6.356;2024-01-07T07:06:16;20.50;;;14.07;;
10295;SDS011;5193;51.032;6.356;2024-01-07T07:08:42;18.57;;;13.70;;
10295;SDS011;5193;51.032;6.356;2024-01-07T07:11:08;16.23;;;11.50;;
10295;SDS011;5193;51.032;6.356;2024-01-07T07:13:33;19.77;;;12.87;;
10295;SDS011;5193;51.032;6.356;2024-01-07T07:16:01;20.40;;;13.90;;
10295;SDS011;5193;51.032;6.356;2024-01-07T07:18:26;18.00;;;12.10;;
10295;SDS011;5193;51.032;6.356;2024-01-07T07:20:52;21.87;;;15.03;;
10295;SDS011;5193;51.032;6.356;2024-01-07T07:23:19;19.80;;;13.27;;
10295;SDS011;5193;51.032;6.356;2024-01-07T07:25:44;20.23;;;14.67;;
10295;SDS011;5193;51.032;6.356;2024-01-07T07:28:10;21.87;;;16.60;;
10295;SDS011;5193;51.032;6.356;2024-01-07T07:30:35;22.17;;;15.17;;
10295;SDS011;5193;51.032;6.356;2024-01-07T07:33:01;20.30;;;13.67;;
10295;SDS011;5193;51.032;6.356;2024-01-07T07:35:30;22.57;;;14.50;;
10295;SDS011;5193;51.032;6.356;2024-01-07T07:37:56;20.83;;;14.70;;
10295;SDS011;5193;51.032;6.356;2024-01-07T07:40:22;20.13;;;13.43;;
10295;SDS011;5193;51.032;6.356;2024-01-07T07:42:47;23.47;;;15.00;;
10295;SDS011;5193;51.032;6.356;2024-01-07T07:45:13;19.23;;;13.13;;
10295;SDS011;5193;51.032;6.356;2024-01-07T07:47:38;25.17;;;14.37;;
10295;SDS011;5193;51.032;6.356;2024-01-07T07:50:09;25.43;;;14.43;;
10295;SDS011;5193;51.032;6.356;2024-01-07T07:52:35;24.23;;;16.27;;
10295;SDS011;5193;51.032;6.356;2024-01-07T07:55:01;26.30;;;15.93;;
10295;SDS011;5193;51.032;6.356;2024-01-07T07:57:26;25.67;;;14.97;;
10295;SDS011;5193;51.032;6.356;2024-01-07T07:59:53;23.27;;;15.83;;
10295;SDS011;5193;51.032;6.356;2024-01-07T08:02:19;25.53;;;16.33;;
10295;SDS011;5193;51.032;6.356;2024-01-07T08:04:46;19.00;;;11.80;;
10295;SDS011;5193;51.032;6.356;2024-01-07T08:07:12;25.97;;;16.13;;
10295;SDS011;5193;51.032;6.356;2024-01-07T08:09:38;25.07;;;16.27;;
10295;SDS011;5193;51.032;6.356;2024-01-07T08:12:04;24.53;;;15.23;;
10295;SDS011;5193;51.032;6.356;2024-01-07T08:14:30;23.33;;;16.17;;
10295;SDS011;5193;51.032;6.356;2024-01-07T08:16:57;22.00;;;14.43;;
10295;SDS011;5193;51.032;6.356;2024-01-07T08:19:22;22.13;;;14.23;;
10295;SDS011;5193;51.032;6.356;2024-01-07T08:21:48;19.03;;;14.07;;
10295;SDS011;5193;51.032;6.356;2024-01-07T08:24:14;22.50;;;14.67;;
10295;SDS011;5193;51.032;6.356;2024-01-07T08:26:42;22.07;;;14.53;;
10295;SDS011;5193;51.032;6.356;2024-01-07T08:29:08;20.43;;;13.90;;
10295;SDS011;5193;51.032;6.356;2024-01-07T08:31:34;26.23;;;15.93;;
10295;SDS011;5193;51.032;6.356;2024-01-07T08:33:59;18.30;;;11.10;;
10295;SDS011;5193;51.032;6.356;2024-01-07T08:36:25;24.90;;;16.83;;
10295;SDS011;5193;51.032;6.356;2024-01-07T08:38:52;21.17;;;15.27;;
10295;SDS011;5193;51.032;6.356;2024-01-07T08:41:20;24.10;;;15.43;;
10295;SDS011;5193;51.032;6.356;2024-01-07T08:43:46;21.70;;;15.13;;
10295;SDS011;5193;51.032;6.356;2024-01-07T08:46:12;22.37;;;15.30;;
10295;SDS011;5193;51.032;6.356;2024-01-07T08:48:38;24.37;;;16.30;;
10295;SDS011;5193;51.032;6.356;2024-01-07T08:51:04;25.63;;;16.10;;
10295;SDS011;5193;51.032;6.356;2024-01-07T08:53:30;23.50;;;15.07;;
10295;SDS011;5193;51.032;6.356;2024-01-07T08:55:56;21.00;;;13.40;;
10295;SDS011;5193;51.032;6.356;2024-01-07T08:58:22;23.23;;;15.30;;
10295;SDS011;5193;51.032;6.356;2024-01-07T09:00:49;25.30;;;14.83;;
10295;SDS011;5193;51.032;6.356;2024-01-07T09:03:15;22.53;;;14.63;;
10295;SDS011;5193;51.032;6.356;2024-01-07T09:05:43;21.17;;;15.23;;
10295;SDS011;5193;51.032;6.356;2024-01-07T09:08:09;22.80;;;15.67;;
10295;SDS011;5193;51.032;6.356;2024-01-07T09:10:42;22.33;;;14.63;;
10295;SDS011;5193;51.032;6.356;2024-01-07T09:16:47;22.37;;;14.80;;
10295;SDS011;5193;51.032;6.356;2024-01-07T09:19:23;21.97;;;13.17;;
10295;SDS011;5193;51.032;6.356;2024-01-07T09:22:00;23.57;;;14.23;;
10295;SDS011;5193;51.032;6.356;2024-01-07T09:31:32;23.50;;;14.73;;
10295;SDS011;5193;51.032;6.356;2024-01-07T09:34:19;20.73;;;12.47;;
10295;SDS011;5193;51.032;6.356;2024-01-07T09:40:39;20.23;;;12.57;;
10295;SDS011;5193;51.032;6.356;2024-01-07T09:43:09;19.77;;;12.20;;
10295;SDS011;5193;51.032;6.356;2024-01-07T09:45:36;12.53;;;7.83;;
10295;SDS011;5193;51.032;6.356;2024-01-07T09:48:03;16.97;;;11.50;;
10295;SDS011;5193;51.032;6.356;2024-01-07T09:50:32;14.97;;;11.83;;
10295;SDS011;5193;51.032;6.356;2024-01-07T09:52:58;15.47;;;9.97;;
10295;SDS011;5193;51.032;6.356;2024-01-07T09:55:27;15.43;;;11.20;;
10295;SDS011;5193;51.032;6.356;2024-01-07T09:58:03;17.17;;;10.20;;
10295;SDS011;5193;51.032;6.356;2024-01-07T10:00:32;19.80;;;12.37;;
10295;SDS011;5193;51.032;6.356;2024-01-07T10:02:58;18.80;;;11.33;;
10295;SDS011;5193;51.032;6.356;2024-01-07T10:05:24;16.50;;;11.00;;
10295;SDS011;5193;51.032;6.356;2024-01-07T10:07:49;16.47;;;10.97;;
10295;SDS011;5193;51.032;6.356;2024-01-07T10:10:16;17.93;;;12.67;;
10295;SDS011;5193;51.032;6.356;2024-01-07T10:12:44;10.33;;;6.20;;
10295;SDS011;5193;51.032;6.356;2024-01-07T10:15:14;22.03;;;12.03;;
10295;SDS011;5193;51.032;6.356;2024-01-07T10:17:41;18.13;;;11.50;;
10295;SDS011;5193;51.032;6.356;2024-01-07T10:20:08;15.57;;;10.40;;
10295;SDS011;5193;51.032;6.356;2024-01-07T10:22:38;21.00;;;13.20;;
10295;SDS011;5193;51.032;6.356;2024-01-07T10:25:03;21.80;;;13.97;;
10295;SDS011;5193;51.032;6.356;2024-01-07T10:27:38;17.37;;;11.77;;
10295;SDS011;5193;51.032;6.356;2024-01-07T10:30:04;19.00;;;11.83;;
10295;SDS011;5193;51.032;6.356;2024-01-07T10:32:31;16.17;;;11.37;;
10295;SDS011;5193;51.032;6.356;2024-01-07T10:35:03;15.10;;;10.47;;
10295;SDS011;5193;51.032;6.356;2024-01-07T10:37:29;17.83;;;11.93;;
10295;SDS011;5193;51.032;6.356;2024-01-07T10:39:57;17.17;;;10.90;;
10295;SDS011;5193;51.032;6.356;2024-01-07T10:42:29;15.97;;;11.37;;
10295;SDS011;5193;51.032;6.356;2024-01-07T10:44:56;15.57;;;10.90;;
10295;SDS011;5193;51.032;6.356;2024-01-07T10:47:22;14.87;;;10.43;;
10295;SDS011;5193;51.032;6.356;2024-01-07T10:49:50;18.10;;;11.07;;
10295;SDS011;5193;51.032;6.356;2024-01-07T10:52:16;13.87;;;8.43;;
10295;SDS011;5193;51.032;6.356;2024-01-07T10:54:42;15.83;;;11.53;;
10295;SDS011;5193;51.032;6.356;2024-01-07T10:57:22;15.50;;;11.37;;
10295;SDS011;5193;51.032;6.356;2024-01-07T10:59:57;13.30;;;9.57;;
10295;SDS011;5193;51.032;6.356;2024-01-07T11:02:25;15.27;;;11.00;;
10295;SDS011;5193;51.032;6.356;2024-01-07T11:05:03;19.50;;;12.07;;
10295;SDS011;5193;51.032;6.356;2024-01-07T11:07:46;15.70;;;10.20;;
10295;SDS011;5193;51.032;6.356;2024-01-07T11:10:28;18.83;;;12.20;;
10295;SDS011;5193;51.032;6.356;2024-01-07T11:12:59;15.60;;;10.97;;
10295;SDS011;5193;51.032;6.356;2024-01-07T11:18:18;16.43;;;12.37;;
10295;SDS011;5193;51.032;6.356;2024-01-07T11:20:45;18.97;;;12.27;;
10295;SDS011;5193;51.032;6.356;2024-01-07T11:23:28;20.17;;;13.97;;
10295;SDS011;5193;51.032;6.356;2024-01-07T11:26:05;18.80;;;11.43;;
10295;SDS011;5193;51.032;6.356;2024-01-07T11:28:44;19.40;;;10.67;;
10295;SDS011;5193;51.032;6.356;2024-01-07T11:31:11;14.27;;;9.80;;
10295;SDS011;5193;51.032;6.356;2024-01-07T11:33:37;17.23;;;12.47;;
10295;SDS011;5193;51.032;6.356;2024-01-07T11:36:04;17.47;;;11.93;;
10295;SDS011;5193;51.032;6.356;2024-01-07T11:38:36;13.90;;;8.83;;
10295;SDS011;5193;51.032;6.356;2024-01-07T11:41:04;15.33;;;10.60;;
10295;SDS011;5193;51.032;6.356;2024-01-07T11:43:31;12.97;;;8.43;;
10295;SDS011;5193;51.032;6.356;2024-01-07T11:45:59;8.93;;;6.83;;
10295;SDS011;5193;51.032;6.356;2024-01-07T11:48:25;16.80;;;7.93;;
10295;SDS011;5193;51.032;6.356;2024-01-07T11:50:57;17.33;;;11.57;;
10295;SDS011;5193;51.032;6.356;2024-01-07T11:53:22;15.73;;;11.23;;
10295;SDS011;5193;51.032;6.356;2024-01-07T11:55:48;12.90;;;9.33;;
10295;SDS011;5193;51.032;6.356;2024-01-07T11:58:13;11.33;;;8.10;;
10295;SDS011;5193;51.032;6.356;2024-01-07T12:00:39;13.53;;;9.43;;
10295;SDS011;5193;51.032;6.356;2024-01-07T12:03:04;14.47;;;9.23;;
10295;SDS011;5193;51.032;6.356;2024-01-07T12:05:36;14.63;;;9.20;;
10295;SDS011;5193;51.032;6.356;2024-01-07T12:08:02;14.37;;;9.80;;
10295;SDS011;5193;51.032;6.356;2024-01-07T12:10:28;17.50;;;12.30;;
10295;SDS011;5193;51.032;6.356;2024-01-07T12:12:53;18.07;;;12.03;;
10295;SDS011;5193;51.032;6.356;2024-01-07T12:15:20;14.40;;;11.00;;
10295;SDS011;5193;51.032;6.356;2024-01-07T12:17:57;16.47;;;12.53;;
10295;SDS011;5193;51.032;6.356;2024-01-07T12:20:27;15.30;;;10.90;;
10295;SDS011;5193;51.032;6.356;2024-01-07T12:22:56;15.90;;;10.73;;
10295;SDS011;5193;51.032;6.356;2024-01-07T12:25:24;16.97;;;11.13;;
10295;SDS011;5193;51.032;6.356;2024-01-07T12:27:50;18.33;;;11.03;;
10295;SDS011;5193;51.032;6.356;2024-01-07T12:30:29;11.33;;;8.13;;
10295;SDS011;5193;51.032;6.356;2024-01-07T12:32:56;10.90;;;8.53;;
10295;SDS011;5193;51.032;6.356;2024-01-07T12:35:24;14.13;;;9.90;;
10295;SDS011;5193;51.032;6.356;2024-01-07T12:37:51;14.70;;;10.93;;
10295;SDS011;5193;51.032;6.356;2024-01-07T12:40:19;17.37;;;11.50;;
10295;SDS011;5193;51.032;6.356;2024-01-07T12:42:45;18.57;;;12.03;;
10295;SDS011;5193;51.032;6.356;2024-01-07T12:45:12;15.83;;;9.60;;
10295;SDS011;5193;51.032;6.356;2024-01-07T12:47:40;15.37;;;11.40;;
10295;SDS011;5193;51.032;6.356;2024-01-07T12:50:08;15.57;;;10.03;;
10295;SDS011;5193;51.032;6.356;2024-01-07T12:52:35;15.00;;;10.20;;
10295;SDS011;5193;51.032;6.356;2024-01-07T12:55:02;13.67;;;8.77;;
10295;SDS011;5193;51.032;6.356;2024-01-07T12:57:28;13.97;;;9.40;;
10295;SDS011;5193;51.032;6.356;2024-01-07T12:59:54;13.70;;;10.03;;
10295;SDS011;5193;51.032;6.356;2024-01-07T13:02:20;11.67;;;9.33;;
10295;SDS011;5193;51.032;6.356;2024-01-07T13:04:45;13.20;;;9.00;;
10295;SDS011;5193;51.032;6.356;2024-01-07T13:07:11;13.33;;;8.97;;
10295;SDS011;5193;51.032;6.356;2024-01-07T13:09:37;10.90;;;8.00;;
10295;SDS011;5193;51.032;6.356;2024-01-07T13:12:05;12.43;;;8.83;;
10295;SDS011;5193;51.032;6.356;2024-01-07T13:14:32;13.53;;;8.40;;
10295;SDS011;5193;51.032;6.356;2024-01-07T13:16:57;11.97;;;8.43;;
10295;SDS011;5193;51.032;6.356;2024-01-07T13:22:40;8.30;;;6.60;;
10295;SDS011;5193;51.032;6.356;2024-01-07T13:25:07;10.90;;;8.53;;
10295;SDS011;5193;51.032;6.356;2024-01-07T13:27:33;10.77;;;7.20;;
10295;SDS011;5193;51.032;6.356;2024-01-07T13:29:59;10.30;;;8.50;;
10295;SDS011;5193;51.032;6.356;2024-01-07T13:32:25;8.97;;;6.63;;
10295;SDS011;5193;51.032;6.356;2024-01-07T13:35:00;7.40;;;6.57;;
10295;SDS011;5193;51.032;6.356;2024-01-07T13:37:25;10.83;;;7.80;;
10295;SDS011;5193;51.032;6.356;2024-01-07T13:39:51;11.90;;;8.60;;
10295;SDS011;5193;51.032;6.356;2024-01-07T13:42:16;10.67;;;8.07;;
10295;SDS011;5193;51.032;6.356;2024-01-07T13:44:42;11.03;;;7.00;;
10295;SDS011;5193;51.032;6.356;2024-01-07T13:47:11;9.17;;;7.53;;
10295;SDS011;5193;51.032;6.356;2024-01-07T13:49:46;8.27;;;6.67;;
10295;SDS011;5193;51.032;6.356;2024-01-07T13:52:11;11.67;;;6.97;;
10295;SDS011;5193;51.032;6.356;2024-01-07T13:54:37;8.60;;;6.00;;
10295;SDS011;5193;51.032;6.356;2024-01-07T13:57:04;9.83;;;6.80;;
10295;SDS011;5193;51.032;6.356;2024-01-07T13:59:31;9.00;;;5.77;;
10295;SDS011;5193;51.032;6.356;2024-01-07T14:02:09;11.27;;;6.77;;
10295;SDS011;5193;51.032;6.356;2024-01-07T14:04:38;9.40;;;6.90;;
10295;SDS011;5193;51.032;6.356;2024-01-07T14:07:05;13.40;;;9.37;;
10295;SDS011;5193;51.032;6.356;2024-01-07T14:09:30;9.20;;;6.90;;
10295;SDS011;5193;51.032;6.356;2024-01-07T14:11:57;9.77;;;6.13;;
10295;SDS011;5193;51.032;6.356;2024-01-07T14:14:23;9.50;;;6.70;;
10295;SDS011;5193;51.032;6.356;2024-01-07T14:16:48;8.93;;;6.43;;
10295;SDS011;5193;51.032;6.356;2024-01-07T14:19:14;7.20;;;5.57;;
10295;SDS011;5193;51.032;6.356;2024-01-07T14:21:41;12.43;;;6.23;;
10295;SDS011;5193;51.032;6.356;2024-01-07T14:24:07;6.73;;;4.70;;
10295;SDS011;5193;51.032;6.356;2024-01-07T14:26:32;9.33;;;5.97;;
10295;SDS011;5193;51.032;6.356;2024-01-07T14:28:58;8.10;;;5.10;;
10295;SDS011;5193;51.032;6.356;2024-01-07T14:34:15;7.07;;;5.20;;
10295;SDS011;5193;51.032;6.356;2024-01-07T14:36:40;10.07;;;5.13;;
10295;SDS011;5193;51.032;6.356;2024-01-07T14:39:08;7.13;;;4.23;;
10295;SDS011;5193;51.032;6.356;2024-01-07T14:41:38;7.53;;;5.37;;
10295;SDS011;5193;51.032;6.356;2024-01-07T14:44:03;6.53;;;4.93;;
10295;SDS011;5193;51.032;6.356;2024-01-07T14:46:29;5.60;;;4.13;;
10295;SDS011;5193;51.032;6.356;2024-01-07T14:48:56;5.67;;;3.83;;
10295;SDS011;5193;51.032;6.356;2024-01-07T14:51:21;7.10;;;5.00;;
10295;SDS011;5193;51.032;6.356;2024-01-07T14:53:47;7.47;;;4.60;;
10295;SDS011;5193;51.032;6.356;2024-01-07T14:56:19;5.60;;;3.00;;
10295;SDS011;5193;51.032;6.356;2024-01-07T14:58:45;6.83;;;4.83;;
10295;SDS011;5193;51.032;6.356;2024-01-07T15:01:11;8.37;;;5.37;;
10295;SDS011;5193;51.032;6.356;2024-01-07T15:03:38;6.83;;;4.30;;